Main page
METAR-TAF:

METAR-TAF

Airports :

Yekaterinburg, Russia

Koltsovo Airport

latitude: 56-50N, longitude: 060-38E, elevation: 237 m

Current weather observation

The report was made 23 minutes ago, at 10:00 UTC
Wind 16 kt from the West
Temperature 8°C
Humidity 81%
Pressure 1002 hPa
Visibility 10 km or more
Broken clouds at a height of 1800 ft

METAR: USSS 281000Z 26008MPS 9999 BKN018 08/05 Q1002 R26R/250050 NOSIG RMK QFE731/0975

Time: 15:23 (10:23 UTC)

Forecast

The report was made 2 hours and 30 minutes ago, at 07:53 UTC
Forecast valid from 28 at 09 UTC to 29 at 09 UTC
Wind 16 kt from the West/Northwest
Visibility 10 km or more
Broken clouds at a height of 1100 ft
Scattered clouds at a height of 2000 ft, Cumulonimbus.
Temporary
from 28 at 09 UTC to 28 at 18 UTC
Wind 29 kt from the West/Northwest
Visibility: 3100 m
light rain showers, small hail or snow pellets

TAF: USSS 280753Z 2809/2909 29008MPS 9999 BKN011 SCT020CB TEMPO 2809/2818 30015MPS 3100 -SHRAGS

Weather observations and forecasts of more than 4000 airports (METAR and TAF reports).

The available stations are represented by yellow and red dots on the map.

Hover mouse over dot to see the name of the station.

Then click to see weather observations and forecasts.

To change the map : click on the green buttons with a black cross to zoom in, on the green button with a dash to zoom out, or on the green arrows for adjacent maps.


METAR-TAF: